sensor_id;sensor_type;location;lat;lon;timestamp;P1;durP1;ratioP1;P2;durP2;ratioP2
45043;SDS011;30784;48.490;9.688;2022-08-21T00:00:24;4.63;;;1.20;;
45043;SDS011;30784;48.490;9.688;2022-08-21T00:02:56;4.97;;;1.20;;
45043;SDS011;30784;48.490;9.688;2022-08-21T00:05:24;2.83;;;0.90;;
45043;SDS011;30784;48.490;9.688;2022-08-21T00:07:51;4.75;;;1.00;;
45043;SDS011;30784;48.490;9.688;2022-08-21T00:10:17;5.00;;;1.20;;
45043;SDS011;30784;48.490;9.688;2022-08-21T00:12:44;3.97;;;1.08;;
45043;SDS011;30784;48.490;9.688;2022-08-21T00:15:11;5.78;;;1.17;;
45043;SDS011;30784;48.490;9.688;2022-08-21T00:17:39;3.28;;;0.90;;
45043;SDS011;30784;48.490;9.688;2022-08-21T00:20:07;3.35;;;1.00;;
45043;SDS011;30784;48.490;9.688;2022-08-21T00:22:34;4.03;;;1.10;;
45043;SDS011;30784;48.490;9.688;2022-08-21T00:25:01;3.83;;;1.27;;
45043;SDS011;30784;48.490;9.688;2022-08-21T00:27:29;3.25;;;1.00;;
45043;SDS011;30784;48.490;9.688;2022-08-21T00:29:54;3.58;;;0.90;;
45043;SDS011;30784;48.490;9.688;2022-08-21T00:32:23;4.15;;;1.10;;
45043;SDS011;30784;48.490;9.688;2022-08-21T00:34:50;5.75;;;1.27;;
45043;SDS011;30784;48.490;9.688;2022-08-21T00:37:17;3.95;;;1.17;;
45043;SDS011;30784;48.490;9.688;2022-08-21T00:39:43;2.47;;;0.88;;
45043;SDS011;30784;48.490;9.688;2022-08-21T00:42:10;4.93;;;1.17;;
45043;SDS011;30784;48.490;9.688;2022-08-21T00:44:40;4.43;;;1.10;;
45043;SDS011;30784;48.490;9.688;2022-08-21T00:47:10;4.93;;;1.00;;
45043;SDS011;30784;48.490;9.688;2022-08-21T00:49:37;3.92;;;1.10;;
45043;SDS011;30784;48.490;9.688;2022-08-21T00:52:04;3.58;;;1.08;;
45043;SDS011;30784;48.490;9.688;2022-08-21T00:54:34;5.35;;;1.00;;
45043;SDS011;30784;48.490;9.688;2022-08-21T00:57:05;3.53;;;0.90;;
45043;SDS011;30784;48.490;9.688;2022-08-21T00:59:36;4.47;;;1.10;;
45043;SDS011;30784;48.490;9.688;2022-08-21T01:02:03;3.05;;;1.02;;
45043;SDS011;30784;48.490;9.688;2022-08-21T01:04:32;2.90;;;1.00;;
45043;SDS011;30784;48.490;9.688;2022-08-21T01:06:58;3.47;;;1.05;;
45043;SDS011;30784;48.490;9.688;2022-08-21T01:09:23;3.05;;;1.08;;
45043;SDS011;30784;48.490;9.688;2022-08-21T01:11:49;4.85;;;1.30;;
45043;SDS011;30784;48.490;9.688;2022-08-21T01:14:15;5.47;;;1.20;;
45043;SDS011;30784;48.490;9.688;2022-08-21T01:16:44;3.55;;;1.00;;
45043;SDS011;30784;48.490;9.688;2022-08-21T01:19:13;3.90;;;1.10;;
45043;SDS011;30784;48.490;9.688;2022-08-21T01:21:40;4.13;;;1.00;;
45043;SDS011;30784;48.490;9.688;2022-08-21T01:24:06;4.72;;;1.10;;
45043;SDS011;30784;48.490;9.688;2022-08-21T01:26:33;3.08;;;1.00;;
45043;SDS011;30784;48.490;9.688;2022-08-21T01:31:31;7.35;;;1.20;;
45043;SDS011;30784;48.490;9.688;2022-08-21T01:33:58;3.72;;;1.00;;
45043;SDS011;30784;48.490;9.688;2022-08-21T01:36:24;4.80;;;1.00;;
45043;SDS011;30784;48.490;9.688;2022-08-21T01:38:51;4.13;;;1.30;;
45043;SDS011;30784;48.490;9.688;2022-08-21T01:41:16;6.10;;;1.00;;
45043;SDS011;30784;48.490;9.688;2022-08-21T01:43:43;4.82;;;1.33;;
45043;SDS011;30784;48.490;9.688;2022-08-21T01:46:10;3.97;;;1.20;;
45043;SDS011;30784;48.490;9.688;2022-08-21T01:48:37;4.60;;;1.20;;
45043;SDS011;30784;48.490;9.688;2022-08-21T01:51:03;3.20;;;0.90;;
45043;SDS011;30784;48.490;9.688;2022-08-21T01:53:30;4.82;;;1.20;;
45043;SDS011;30784;48.490;9.688;2022-08-21T01:55:56;3.83;;;1.17;;
45043;SDS011;30784;48.490;9.688;2022-08-21T01:58:22;4.18;;;1.10;;
45043;SDS011;30784;48.490;9.688;2022-08-21T02:00:47;5.13;;;1.45;;
45043;SDS011;30784;48.490;9.688;2022-08-21T02:03:14;4.55;;;1.30;;
45043;SDS011;30784;48.490;9.688;2022-08-21T02:05:40;4.72;;;1.10;;
45043;SDS011;30784;48.490;9.688;2022-08-21T02:08:05;4.10;;;1.17;;
45043;SDS011;30784;48.490;9.688;2022-08-21T02:10:32;7.53;;;1.58;;
45043;SDS011;30784;48.490;9.688;2022-08-21T02:12:59;4.43;;;1.55;;
45043;SDS011;30784;48.490;9.688;2022-08-21T02:15:25;4.50;;;1.10;;
45043;SDS011;30784;48.490;9.688;2022-08-21T02:17:54;5.72;;;1.20;;
45043;SDS011;30784;48.490;9.688;2022-08-21T02:22:50;5.70;;;1.30;;
45043;SDS011;30784;48.490;9.688;2022-08-21T02:25:17;5.00;;;1.20;;
45043;SDS011;30784;48.490;9.688;2022-08-21T02:27:45;8.35;;;1.80;;
45043;SDS011;30784;48.490;9.688;2022-08-21T02:30:17;5.38;;;1.48;;
45043;SDS011;30784;48.490;9.688;2022-08-21T02:32:48;6.20;;;1.30;;
45043;SDS011;30784;48.490;9.688;2022-08-21T02:35:14;5.25;;;1.30;;
45043;SDS011;30784;48.490;9.688;2022-08-21T02:37:54;3.45;;;1.00;;
45043;SDS011;30784;48.490;9.688;2022-08-21T02:40:25;6.35;;;1.30;;
45043;SDS011;30784;48.490;9.688;2022-08-21T02:42:53;4.57;;;1.17;;
45043;SDS011;30784;48.490;9.688;2022-08-21T02:45:19;4.05;;;1.17;;
45043;SDS011;30784;48.490;9.688;2022-08-21T02:47:53;4.07;;;1.10;;
45043;SDS011;30784;48.490;9.688;2022-08-21T02:50:29;5.78;;;1.20;;
45043;SDS011;30784;48.490;9.688;2022-08-21T02:52:56;5.25;;;1.27;;
45043;SDS011;30784;48.490;9.688;2022-08-21T02:55:23;5.40;;;1.30;;
45043;SDS011;30784;48.490;9.688;2022-08-21T02:57:51;3.17;;;1.10;;
45043;SDS011;30784;48.490;9.688;2022-08-21T03:00:17;4.93;;;1.30;;
45043;SDS011;30784;48.490;9.688;2022-08-21T03:02:45;5.25;;;1.33;;
45043;SDS011;30784;48.490;9.688;2022-08-21T03:05:12;4.72;;;1.27;;
45043;SDS011;30784;48.490;9.688;2022-08-21T03:07:40;4.80;;;1.38;;
45043;SDS011;30784;48.490;9.688;2022-08-21T03:10:06;3.90;;;1.30;;
45043;SDS011;30784;48.490;9.688;2022-08-21T03:12:33;4.30;;;1.50;;
45043;SDS011;30784;48.490;9.688;2022-08-21T03:15:00;3.20;;;1.10;;
45043;SDS011;30784;48.490;9.688;2022-08-21T03:17:30;4.82;;;1.30;;
45043;SDS011;30784;48.490;9.688;2022-08-21T03:19:56;4.53;;;1.40;;
45043;SDS011;30784;48.490;9.688;2022-08-21T03:22:22;6.72;;;1.40;;
45043;SDS011;30784;48.490;9.688;2022-08-21T03:24:47;5.90;;;1.42;;
45043;SDS011;30784;48.490;9.688;2022-08-21T03:27:13;6.13;;;1.25;;
45043;SDS011;30784;48.490;9.688;2022-08-21T03:29:39;5.70;;;1.73;;
45043;SDS011;30784;48.490;9.688;2022-08-21T03:32:05;4.15;;;1.40;;
45043;SDS011;30784;48.490;9.688;2022-08-21T03:34:34;5.45;;;1.27;;
45043;SDS011;30784;48.490;9.688;2022-08-21T03:37:00;5.18;;;1.40;;
45043;SDS011;30784;48.490;9.688;2022-08-21T03:39:26;4.88;;;1.30;;
45043;SDS011;30784;48.490;9.688;2022-08-21T03:41:51;7.10;;;1.65;;
45043;SDS011;30784;48.490;9.688;2022-08-21T03:44:18;4.70;;;1.35;;
45043;SDS011;30784;48.490;9.688;2022-08-21T03:46:44;4.30;;;1.33;;
45043;SDS011;30784;48.490;9.688;2022-08-21T03:49:10;4.53;;;1.50;;
45043;SDS011;30784;48.490;9.688;2022-08-21T03:51:36;6.25;;;1.75;;
45043;SDS011;30784;48.490;9.688;2022-08-21T03:54:02;5.05;;;1.50;;
45043;SDS011;30784;48.490;9.688;2022-08-21T03:56:28;5.03;;;1.60;;
45043;SDS011;30784;48.490;9.688;2022-08-21T03:58:53;5.57;;;1.50;;
45043;SDS011;30784;48.490;9.688;2022-08-21T04:01:19;4.05;;;1.40;;
45043;SDS011;30784;48.490;9.688;2022-08-21T04:03:45;5.63;;;1.48;;
45043;SDS011;30784;48.490;9.688;2022-08-21T04:06:12;4.63;;;1.38;;
45043;SDS011;30784;48.490;9.688;2022-08-21T04:08:37;4.18;;;1.30;;
45043;SDS011;30784;48.490;9.688;2022-08-21T04:11:03;4.85;;;1.60;;
45043;SDS011;30784;48.490;9.688;2022-08-21T04:13:30;4.53;;;1.40;;
45043;SDS011;30784;48.490;9.688;2022-08-21T04:15:56;4.30;;;1.50;;
45043;SDS011;30784;48.490;9.688;2022-08-21T04:18:23;8.02;;;2.05;;
45043;SDS011;30784;48.490;9.688;2022-08-21T04:20:50;4.95;;;1.58;;
45043;SDS011;30784;48.490;9.688;2022-08-21T04:23:18;6.80;;;1.77;;
45043;SDS011;30784;48.490;9.688;2022-08-21T04:25:46;4.28;;;1.40;;
45043;SDS011;30784;48.490;9.688;2022-08-21T04:28:11;6.30;;;1.70;;
45043;SDS011;30784;48.490;9.688;2022-08-21T04:30:37;6.85;;;1.77;;
45043;SDS011;30784;48.490;9.688;2022-08-21T04:33:03;7.38;;;2.00;;
45043;SDS011;30784;48.490;9.688;2022-08-21T04:35:28;5.82;;;1.50;;
45043;SDS011;30784;48.490;9.688;2022-08-21T04:37:55;5.20;;;1.60;;
45043;SDS011;30784;48.490;9.688;2022-08-21T04:40:22;5.03;;;1.60;;
45043;SDS011;30784;48.490;9.688;2022-08-21T04:42:51;4.70;;;1.50;;
45043;SDS011;30784;48.490;9.688;2022-08-21T04:45:20;5.32;;;1.65;;
45043;SDS011;30784;48.490;9.688;2022-08-21T04:47:49;5.43;;;1.63;;
45043;SDS011;30784;48.490;9.688;2022-08-21T04:50:16;5.63;;;1.77;;
45043;SDS011;30784;48.490;9.688;2022-08-21T04:52:42;5.78;;;1.60;;
45043;SDS011;30784;48.490;9.688;2022-08-21T04:55:09;4.30;;;1.70;;
45043;SDS011;30784;48.490;9.688;2022-08-21T04:57:35;5.82;;;1.58;;
45043;SDS011;30784;48.490;9.688;2022-08-21T05:00:01;4.75;;;1.55;;
45043;SDS011;30784;48.490;9.688;2022-08-21T05:02:30;4.78;;;1.40;;
45043;SDS011;30784;48.490;9.688;2022-08-21T05:04:57;6.30;;;1.80;;
45043;SDS011;30784;48.490;9.688;2022-08-21T05:07:25;7.95;;;2.10;;
45043;SDS011;30784;48.490;9.688;2022-08-21T05:09:54;4.45;;;1.40;;
45043;SDS011;30784;48.490;9.688;2022-08-21T05:12:20;7.65;;;1.70;;
45043;SDS011;30784;48.490;9.688;2022-08-21T05:14:46;4.93;;;1.77;;
45043;SDS011;30784;48.490;9.688;2022-08-21T05:17:12;4.72;;;1.60;;
45043;SDS011;30784;48.490;9.688;2022-08-21T05:19:38;5.13;;;1.60;;
45043;SDS011;30784;48.490;9.688;2022-08-21T05:22:04;4.72;;;1.60;;
45043;SDS011;30784;48.490;9.688;2022-08-21T05:24:30;6.32;;;2.30;;
45043;SDS011;30784;48.490;9.688;2022-08-21T05:26:56;8.02;;;3.50;;
45043;SDS011;30784;48.490;9.688;2022-08-21T05:29:22;9.10;;;4.45;;
45043;SDS011;30784;48.490;9.688;2022-08-21T05:31:48;8.82;;;3.22;;
45043;SDS011;30784;48.490;9.688;2022-08-21T05:34:14;7.57;;;2.38;;
45043;SDS011;30784;48.490;9.688;2022-08-21T05:36:43;6.10;;;2.00;;
45043;SDS011;30784;48.490;9.688;2022-08-21T05:39:09;6.55;;;1.70;;
45043;SDS011;30784;48.490;9.688;2022-08-21T05:41:34;6.18;;;1.70;;
45043;SDS011;30784;48.490;9.688;2022-08-21T05:44:00;5.72;;;1.50;;
45043;SDS011;30784;48.490;9.688;2022-08-21T05:46:26;5.65;;;1.60;;
45043;SDS011;30784;48.490;9.688;2022-08-21T05:48:51;4.45;;;1.48;;
45043;SDS011;30784;48.490;9.688;2022-08-21T05:51:17;6.72;;;1.90;;
45043;SDS011;30784;48.490;9.688;2022-08-21T05:53:43;7.25;;;1.63;;
45043;SDS011;30784;48.490;9.688;2022-08-21T05:56:10;6.78;;;1.70;;
45043;SDS011;30784;48.490;9.688;2022-08-21T05:58:36;4.78;;;1.60;;
45043;SDS011;30784;48.490;9.688;2022-08-21T06:01:02;5.68;;;1.88;;
45043;SDS011;30784;48.490;9.688;2022-08-21T06:03:30;4.70;;;1.80;;
45043;SDS011;30784;48.490;9.688;2022-08-21T06:05:58;6.22;;;1.65;;
45043;SDS011;30784;48.490;9.688;2022-08-21T06:08:25;5.88;;;1.85;;
45043;SDS011;30784;48.490;9.688;2022-08-21T06:10:51;7.55;;;2.00;;
45043;SDS011;30784;48.490;9.688;2022-08-21T06:13:19;4.10;;;1.50;;
45043;SDS011;30784;48.490;9.688;2022-08-21T06:15:46;6.35;;;2.10;;
45043;SDS011;30784;48.490;9.688;2022-08-21T06:18:13;5.53;;;1.70;;
45043;SDS011;30784;48.490;9.688;2022-08-21T06:20:39;5.53;;;1.50;;
45043;SDS011;30784;48.490;9.688;2022-08-21T06:23:05;6.82;;;1.90;;
45043;SDS011;30784;48.490;9.688;2022-08-21T06:25:31;5.60;;;1.77;;
45043;SDS011;30784;48.490;9.688;2022-08-21T06:28:04;4.22;;;1.50;;
45043;SDS011;30784;48.490;9.688;2022-08-21T06:30:34;7.10;;;1.88;;
45043;SDS011;30784;48.490;9.688;2022-08-21T06:33:01;4.95;;;1.67;;
45043;SDS011;30784;48.490;9.688;2022-08-21T06:35:27;6.63;;;2.10;;
45043;SDS011;30784;48.490;9.688;2022-08-21T06:37:54;5.25;;;1.83;;
45043;SDS011;30784;48.490;9.688;2022-08-21T06:40:20;6.13;;;1.80;;
45043;SDS011;30784;48.490;9.688;2022-08-21T06:42:46;6.65;;;1.95;;
45043;SDS011;30784;48.490;9.688;2022-08-21T06:45:12;5.18;;;1.60;;
45043;SDS011;30784;48.490;9.688;2022-08-21T06:47:38;5.57;;;1.67;;
45043;SDS011;30784;48.490;9.688;2022-08-21T06:50:03;6.00;;;1.98;;
45043;SDS011;30784;48.490;9.688;2022-08-21T06:52:29;7.50;;;2.20;;
45043;SDS011;30784;48.490;9.688;2022-08-21T06:54:55;5.70;;;1.90;;
45043;SDS011;30784;48.490;9.688;2022-08-21T06:57:21;5.07;;;1.85;;
45043;SDS011;30784;48.490;9.688;2022-08-21T06:59:46;7.07;;;2.00;;
45043;SDS011;30784;48.490;9.688;2022-08-21T07:02:12;5.72;;;2.10;;
45043;SDS011;30784;48.490;9.688;2022-08-21T07:04:38;5.05;;;1.88;;
45043;SDS011;30784;48.490;9.688;2022-08-21T07:07:03;6.30;;;1.67;;
45043;SDS011;30784;48.490;9.688;2022-08-21T07:09:29;6.05;;;2.00;;
45043;SDS011;30784;48.490;9.688;2022-08-21T07:11:55;7.07;;;1.90;;
45043;SDS011;30784;48.490;9.688;2022-08-21T07:14:22;5.82;;;1.90;;
45043;SDS011;30784;48.490;9.688;2022-08-21T07:16:48;6.25;;;1.98;;
45043;SDS011;30784;48.490;9.688;2022-08-21T07:19:14;5.95;;;1.70;;
45043;SDS011;30784;48.490;9.688;2022-08-21T07:21:39;6.82;;;2.17;;
45043;SDS011;30784;48.490;9.688;2022-08-21T07:24:05;5.78;;;2.00;;
45043;SDS011;30784;48.490;9.688;2022-08-21T07:26:31;6.25;;;2.10;;
45043;SDS011;30784;48.490;9.688;2022-08-21T07:28:56;7.75;;;2.30;;
45043;SDS011;30784;48.490;9.688;2022-08-21T07:31:23;11.85;;;7.50;;
45043;SDS011;30784;48.490;9.688;2022-08-21T07:33:49;7.55;;;3.10;;
45043;SDS011;30784;48.490;9.688;2022-08-21T07:36:15;9.18;;;2.78;;
45043;SDS011;30784;48.490;9.688;2022-08-21T07:38:42;5.53;;;1.95;;
45043;SDS011;30784;48.490;9.688;2022-08-21T07:41:21;6.93;;;3.20;;
45043;SDS011;30784;48.490;9.688;2022-08-21T07:43:48;8.05;;;2.70;;
45043;SDS011;30784;48.490;9.688;2022-08-21T07:46:14;6.78;;;2.22;;
45043;SDS011;30784;48.490;9.688;2022-08-21T07:48:40;6.68;;;2.47;;
45043;SDS011;30784;48.490;9.688;2022-08-21T07:51:07;7.75;;;2.25;;
45043;SDS011;30784;48.490;9.688;2022-08-21T07:53:36;7.13;;;2.35;;
45043;SDS011;30784;48.490;9.688;2022-08-21T07:56:03;8.20;;;3.67;;
45043;SDS011;30784;48.490;9.688;2022-08-21T07:58:30;10.82;;;4.63;;
45043;SDS011;30784;48.490;9.688;2022-08-21T08:00:56;8.85;;;2.85;;
45043;SDS011;30784;48.490;9.688;2022-08-21T08:03:22;7.03;;;2.50;;
45043;SDS011;30784;48.490;9.688;2022-08-21T08:05:47;7.10;;;2.40;;
45043;SDS011;30784;48.490;9.688;2022-08-21T08:08:13;9.05;;;3.60;;
45043;SDS011;30784;48.490;9.688;2022-08-21T08:10:39;7.30;;;3.03;;
45043;SDS011;30784;48.490;9.688;2022-08-21T08:13:05;8.13;;;2.60;;
45043;SDS011;30784;48.490;9.688;2022-08-21T08:15:31;8.07;;;3.22;;
45043;SDS011;30784;48.490;9.688;2022-08-21T08:17:56;8.13;;;2.67;;
45043;SDS011;30784;48.490;9.688;2022-08-21T08:20:23;7.07;;;2.55;;
45043;SDS011;30784;48.490;9.688;2022-08-21T08:22:51;8.02;;;2.28;;
45043;SDS011;30784;48.490;9.688;2022-08-21T08:25:18;6.38;;;2.30;;
45043;SDS011;30784;48.490;9.688;2022-08-21T08:27:44;6.35;;;1.90;;
45043;SDS011;30784;48.490;9.688;2022-08-21T08:30:11;6.65;;;1.80;;
45043;SDS011;30784;48.490;9.688;2022-08-21T08:32:38;7.00;;;2.15;;
45043;SDS011;30784;48.490;9.688;2022-08-21T08:35:05;5.80;;;1.98;;
45043;SDS011;30784;48.490;9.688;2022-08-21T08:37:32;6.15;;;1.88;;
45043;SDS011;30784;48.490;9.688;2022-08-21T08:39:58;6.95;;;2.30;;
45043;SDS011;30784;48.490;9.688;2022-08-21T08:42:28;5.63;;;1.77;;
45043;SDS011;30784;48.490;9.688;2022-08-21T08:45:00;6.90;;;2.20;;
45043;SDS011;30784;48.490;9.688;2022-08-21T08:47:31;5.93;;;1.73;;
45043;SDS011;30784;48.490;9.688;2022-08-21T08:50:04;6.55;;;3.15;;
45043;SDS011;30784;48.490;9.688;2022-08-21T08:52:49;7.75;;;2.30;;
45043;SDS011;30784;48.490;9.688;2022-08-21T08:55:26;5.97;;;1.73;;
45043;SDS011;30784;48.490;9.688;2022-08-21T08:58:00;6.68;;;2.03;;
45043;SDS011;30784;48.490;9.688;2022-08-21T09:00:27;7.45;;;2.22;;
45043;SDS011;30784;48.490;9.688;2022-08-21T09:02:55;6.68;;;2.20;;
45043;SDS011;30784;48.490;9.688;2022-08-21T09:08:16;5.65;;;1.70;;
45043;SDS011;30784;48.490;9.688;2022-08-21T09:11:08;5.25;;;1.80;;
45043;SDS011;30784;48.490;9.688;2022-08-21T09:13:52;6.30;;;1.95;;
45043;SDS011;30784;48.490;9.688;2022-08-21T09:16:40;4.97;;;1.77;;
45043;SDS011;30784;48.490;9.688;2022-08-21T09:22:26;6.18;;;2.20;;
45043;SDS011;30784;48.490;9.688;2022-08-21T09:25:31;7.32;;;2.03;;
45043;SDS011;30784;48.490;9.688;2022-08-21T09:28:07;5.10;;;1.90;;
45043;SDS011;30784;48.490;9.688;2022-08-21T09:30:33;7.10;;;1.90;;
45043;SDS011;30784;48.490;9.688;2022-08-21T09:32:59;5.90;;;1.98;;
45043;SDS011;30784;48.490;9.688;2022-08-21T09:35:25;7.82;;;2.90;;
45043;SDS011;30784;48.490;9.688;2022-08-21T09:43:14;6.35;;;1.83;;
45043;SDS011;30784;48.490;9.688;2022-08-21T09:45:42;5.72;;;1.70;;
45043;SDS011;30784;48.490;9.688;2022-08-21T09:48:19;6.85;;;1.83;;
45043;SDS011;30784;48.490;9.688;2022-08-21T09:50:48;5.70;;;1.60;;
45043;SDS011;30784;48.490;9.688;2022-08-21T09:53:16;4.90;;;1.83;;
45043;SDS011;30784;48.490;9.688;2022-08-21T09:55:57;5.47;;;1.90;;
45043;SDS011;30784;48.490;9.688;2022-08-21T09:59:00;5.80;;;1.73;;
45043;SDS011;30784;48.490;9.688;2022-08-21T10:01:25;5.85;;;1.80;;
45043;SDS011;30784;48.490;9.688;2022-08-21T10:04:12;6.55;;;2.00;;
45043;SDS011;30784;48.490;9.688;2022-08-21T10:06:37;4.72;;;1.60;;
45043;SDS011;30784;48.490;9.688;2022-08-21T10:09:08;5.22;;;1.60;;
45043;SDS011;30784;48.490;9.688;2022-08-21T10:11:36;5.47;;;1.83;;
45043;SDS011;30784;48.490;9.688;2022-08-21T10:14:08;3.75;;;1.50;;
45043;SDS011;30784;48.490;9.688;2022-08-21T10:24:51;4.82;;;1.58;;
45043;SDS011;30784;48.490;9.688;2022-08-21T10:27:47;5.35;;;1.80;;
45043;SDS011;30784;48.490;9.688;2022-08-21T10:30:21;5.10;;;1.60;;
45043;SDS011;30784;48.490;9.688;2022-08-21T10:33:08;5.50;;;1.88;;
45043;SDS011;30784;48.490;9.688;2022-08-21T10:38:55;8.63;;;4.32;;
45043;SDS011;30784;48.490;9.688;2022-08-21T10:42:11;6.45;;;2.40;;
45043;SDS011;30784;48.490;9.688;2022-08-21T10:44:29;5.03;;;2.00;;
45043;SDS011;30784;48.490;9.688;2022-08-21T10:47:22;6.28;;;1.80;;
45043;SDS011;30784;48.490;9.688;2022-08-21T10:50:04;4.70;;;1.52;;
45043;SDS011;30784;48.490;9.688;2022-08-21T10:55:52;5.68;;;1.88;;
45043;SDS011;30784;48.490;9.688;2022-08-21T10:58:30;5.00;;;1.73;;
45043;SDS011;30784;48.490;9.688;2022-08-21T11:01:07;7.68;;;1.80;;
45043;SDS011;30784;48.490;9.688;2022-08-21T11:03:41;5.65;;;1.65;;
45043;SDS011;30784;48.490;9.688;2022-08-21T11:09:11;4.70;;;1.42;;
45043;SDS011;30784;48.490;9.688;2022-08-21T11:15:00;5.68;;;1.50;;
45043;SDS011;30784;48.490;9.688;2022-08-21T11:17:34;4.15;;;1.40;;
45043;SDS011;30784;48.490;9.688;2022-08-21T11:20:15;4.47;;;1.58;;
45043;SDS011;30784;48.490;9.688;2022-08-21T11:22:56;4.55;;;1.58;;
45043;SDS011;30784;48.490;9.688;2022-08-21T11:25:35;5.90;;;1.73;;
45043;SDS011;30784;48.490;9.688;2022-08-21T11:28:38;6.55;;;1.92;;
45043;SDS011;30784;48.490;9.688;2022-08-21T11:31:17;5.43;;;1.55;;
45043;SDS011;30784;48.490;9.688;2022-08-21T11:37:01;5.68;;;1.50;;
45043;SDS011;30784;48.490;9.688;2022-08-21T11:39:37;4.07;;;1.45;;
45043;SDS011;30784;48.490;9.688;2022-08-21T11:47:52;4.63;;;1.55;;
45043;SDS011;30784;48.490;9.688;2022-08-21T11:50:37;4.68;;;1.70;;
45043;SDS011;30784;48.490;9.688;2022-08-21T11:55:44;4.75;;;1.40;;
45043;SDS011;30784;48.490;9.688;2022-08-21T11:58:39;5.75;;;1.60;;
45043;SDS011;30784;48.490;9.688;2022-08-21T12:01:19;5.88;;;1.80;;
45043;SDS011;30784;48.490;9.688;2022-08-21T12:04:07;5.03;;;1.42;;
45043;SDS011;30784;48.490;9.688;2022-08-21T12:06:49;5.05;;;1.63;;
45043;SDS011;30784;48.490;9.688;2022-08-21T12:11:50;4.47;;;1.52;;
45043;SDS011;30784;48.490;9.688;2022-08-21T12:14:35;5.28;;;1.80;;
45043;SDS011;30784;48.490;9.688;2022-08-21T12:17:06;6.18;;;1.80;;
45043;SDS011;30784;48.490;9.688;2022-08-21T12:19:33;5.68;;;1.90;;
45043;SDS011;30784;48.490;9.688;2022-08-21T12:24:36;5.60;;;1.50;;
45043;SDS011;30784;48.490;9.688;2022-08-21T12:32:24;4.55;;;1.60;;
45043;SDS011;30784;48.490;9.688;2022-08-21T12:37:22;5.28;;;1.60;;
45043;SDS011;30784;48.490;9.688;2022-08-21T12:39:59;6.47;;;1.70;;
45043;SDS011;30784;48.490;9.688;2022-08-21T12:42:33;5.97;;;1.80;;
45043;SDS011;30784;48.490;9.688;2022-08-21T12:45:17;5.35;;;2.03;;
45043;SDS011;30784;48.490;9.688;2022-08-21T12:47:47;5.60;;;1.70;;
45043;SDS011;30784;48.490;9.688;2022-08-21T12:55:52;5.45;;;1.58;;
45043;SDS011;30784;48.490;9.688;2022-08-21T12:58:21;6.00;;;1.60;;
45043;SDS011;30784;48.490;9.688;2022-08-21T13:03:48;4.43;;;1.50;;
45043;SDS011;30784;48.490;9.688;2022-08-21T13:06:15;4.97;;;1.60;;
45043;SDS011;30784;48.490;9.688;2022-08-21T13:08:44;5.50;;;1.70;;
45043;SDS011;30784;48.490;9.688;2022-08-21T13:11:11;4.40;;;1.40;;
45043;SDS011;30784;48.490;9.688;2022-08-21T13:13:40;6.32;;;1.80;;
45043;SDS011;30784;48.490;9.688;2022-08-21T13:16:07;5.03;;;1.50;;
45043;SDS011;30784;48.490;9.688;2022-08-21T13:18:35;5.38;;;1.58;;
45043;SDS011;30784;48.490;9.688;2022-08-21T13:21:05;5.88;;;1.80;;
45043;SDS011;30784;48.490;9.688;2022-08-21T13:23:35;5.85;;;1.95;;
45043;SDS011;30784;48.490;9.688;2022-08-21T13:26:02;5.45;;;1.73;;
45043;SDS011;30784;48.490;9.688;2022-08-21T13:28:41;5.47;;;1.70;;
45043;SDS011;30784;48.490;9.688;2022-08-21T13:31:09;5.20;;;1.50;;
45043;SDS011;30784;48.490;9.688;2022-08-21T13:33:35;3.35;;;1.38;;
45043;SDS011;30784;48.490;9.688;2022-08-21T13:36:04;4.95;;;1.55;;
45043;SDS011;30784;48.490;9.688;2022-08-21T13:38:39;5.43;;;1.60;;
45043;SDS011;30784;48.490;9.688;2022-08-21T13:41:17;5.18;;;1.77;;
45043;SDS011;30784;48.490;9.688;2022-08-21T13:43:56;5.95;;;1.67;;
45043;SDS011;30784;48.490;9.688;2022-08-21T13:46:24;5.88;;;1.58;;
45043;SDS011;30784;48.490;9.688;2022-08-21T13:48:53;3.95;;;1.40;;
45043;SDS011;30784;48.490;9.688;2022-08-21T13:51:20;5.18;;;1.58;;
45043;SDS011;30784;48.490;9.688;2022-08-21T13:53:47;5.43;;;1.52;;
45043;SDS011;30784;48.490;9.688;2022-08-21T13:56:33;5.82;;;1.70;;
45043;SDS011;30784;48.490;9.688;2022-08-21T13:59:07;4.35;;;1.42;;
45043;SDS011;30784;48.490;9.688;2022-08-21T14:04:02;6.00;;;1.70;;
45043;SDS011;30784;48.490;9.688;2022-08-21T14:06:46;5.00;;;1.60;;
45043;SDS011;30784;48.490;9.688;2022-08-21T14:09:15;4.93;;;1.80;;
45043;SDS011;30784;48.490;9.688;2022-08-21T14:11:55;5.53;;;1.98;;
45043;SDS011;30784;48.490;9.688;2022-08-21T14:14:23;4.72;;;1.60;;
45043;SDS011;30784;48.490;9.688;2022-08-21T14:16:57;5.30;;;1.73;;
45043;SDS011;30784;48.490;9.688;2022-08-21T14:19:38;4.80;;;1.65;;
45043;SDS011;30784;48.490;9.688;2022-08-21T14:27:36;5.05;;;1.58;;
45043;SDS011;30784;48.490;9.688;2022-08-21T14:30:12;4.60;;;1.48;;
45043;SDS011;30784;48.490;9.688;2022-08-21T14:32:45;7.07;;;1.90;;
45043;SDS011;30784;48.490;9.688;2022-08-21T14:35:11;5.10;;;1.65;;
45043;SDS011;30784;48.490;9.688;2022-08-21T14:37:37;3.90;;;1.35;;
45043;SDS011;30784;48.490;9.688;2022-08-21T14:42:33;5.00;;;1.50;;
45043;SDS011;30784;48.490;9.688;2022-08-21T14:45:00;6.28;;;1.73;;
45043;SDS011;30784;48.490;9.688;2022-08-21T14:47:30;5.00;;;1.65;;
45043;SDS011;30784;48.490;9.688;2022-08-21T14:49:55;4.88;;;1.60;;
45043;SDS011;30784;48.490;9.688;2022-08-21T14:52:21;5.82;;;1.60;;
45043;SDS011;30784;48.490;9.688;2022-08-21T14:54:48;4.97;;;1.63;;
45043;SDS011;30784;48.490;9.688;2022-08-21T14:57:14;5.20;;;1.60;;
45043;SDS011;30784;48.490;9.688;2022-08-21T14:59:40;4.90;;;1.40;;
45043;SDS011;30784;48.490;9.688;2022-08-21T15:02:06;7.10;;;1.75;;
45043;SDS011;30784;48.490;9.688;2022-08-21T15:04:33;5.97;;;1.80;;
45043;SDS011;30784;48.490;9.688;2022-08-21T15:06:59;5.70;;;2.05;;
45043;SDS011;30784;48.490;9.688;2022-08-21T15:09:25;6.78;;;1.67;;
45043;SDS011;30784;48.490;9.688;2022-08-21T15:11:52;4.50;;;1.60;;
45043;SDS011;30784;48.490;9.688;2022-08-21T15:14:23;5.80;;;1.63;;
45043;SDS011;30784;48.490;9.688;2022-08-21T15:16:51;5.45;;;1.70;;
45043;SDS011;30784;48.490;9.688;2022-08-21T15:19:17;6.07;;;1.70;;
45043;SDS011;30784;48.490;9.688;2022-08-21T15:21:43;7.35;;;1.83;;
45043;SDS011;30784;48.490;9.688;2022-08-21T15:24:09;4.82;;;1.65;;
45043;SDS011;30784;48.490;9.688;2022-08-21T15:26:35;5.50;;;1.50;;
45043;SDS011;30784;48.490;9.688;2022-08-21T15:29:01;5.13;;;1.60;;
45043;SDS011;30784;48.490;9.688;2022-08-21T15:31:27;4.68;;;1.55;;
45043;SDS011;30784;48.490;9.688;2022-08-21T15:33:54;4.20;;;1.35;;
45043;SDS011;30784;48.490;9.688;2022-08-21T15:36:20;6.65;;;1.80;;
45043;SDS011;30784;48.490;9.688;2022-08-21T15:38:45;5.95;;;1.80;;
45043;SDS011;30784;48.490;9.688;2022-08-21T15:41:11;5.93;;;1.85;;
45043;SDS011;30784;48.490;9.688;2022-08-21T15:43:41;3.83;;;1.25;;
45043;SDS011;30784;48.490;9.688;2022-08-21T15:46:13;4.78;;;1.52;;
45043;SDS011;30784;48.490;9.688;2022-08-21T15:48:40;5.30;;;1.83;;
45043;SDS011;30784;48.490;9.688;2022-08-21T15:51:07;5.40;;;1.95;;
45043;SDS011;30784;48.490;9.688;2022-08-21T15:53:33;5.47;;;1.80;;
45043;SDS011;30784;48.490;9.688;2022-08-21T15:56:03;5.95;;;2.10;;
45043;SDS011;30784;48.490;9.688;2022-08-21T15:58:30;5.75;;;1.73;;
45043;SDS011;30784;48.490;9.688;2022-08-21T16:01:00;5.68;;;1.73;;
45043;SDS011;30784;48.490;9.688;2022-08-21T16:03:26;5.93;;;1.63;;
45043;SDS011;30784;48.490;9.688;2022-08-21T16:05:53;4.68;;;1.45;;
45043;SDS011;30784;48.490;9.688;2022-08-21T16:08:21;5.22;;;1.63;;
45043;SDS011;30784;48.490;9.688;2022-08-21T16:10:47;4.78;;;1.67;;
45043;SDS011;30784;48.490;9.688;2022-08-21T16:13:18;4.07;;;1.63;;
45043;SDS011;30784;48.490;9.688;2022-08-21T16:15:49;6.05;;;1.90;;
45043;SDS011;30784;48.490;9.688;2022-08-21T16:18:15;6.60;;;2.40;;
45043;SDS011;30784;48.490;9.688;2022-08-21T16:20:42;5.82;;;2.00;;